sensor_id;sensor_type;location;lat;lon;timestamp;pressure;altitude;pressure_sealevel;temperature;humidity
49122;BME280;35529;44.342;25.944;2024-02-21T00:01:24;101418.13;;;7.92;100.00
49122;BME280;35529;44.342;25.944;2024-02-21T00:03:50;101425.81;;;7.85;100.00
49122;BME280;35529;44.342;25.944;2024-02-21T00:06:17;101416.53;;;7.81;100.00
49122;BME280;35529;44.342;25.944;2024-02-21T00:08:43;101418.53;;;7.79;100.00
49122;BME280;35529;44.342;25.944;2024-02-21T00:11:09;101414.81;;;7.71;100.00
49122;BME280;35529;44.342;25.944;2024-02-21T00:13:35;101406.22;;;7.69;100.00
49122;BME280;35529;44.342;25.944;2024-02-21T00:16:01;101410.06;;;7.75;100.00
49122;BME280;35529;44.342;25.944;2024-02-21T00:18:27;101414.22;;;7.78;100.00
49122;BME280;35529;44.342;25.944;2024-02-21T00:20:54;101403.19;;;7.82;100.00
49122;BME280;35529;44.342;25.944;2024-02-21T00:23:20;101406.81;;;7.81;100.00
49122;BME280;35529;44.342;25.944;2024-02-21T00:25:46;101401.53;;;7.81;100.00
49122;BME280;35529;44.342;25.944;2024-02-21T00:28:12;101401.19;;;7.84;100.00
49122;BME280;35529;44.342;25.944;2024-02-21T00:30:38;101387.81;;;7.86;100.00
49122;BME280;35529;44.342;25.944;2024-02-21T00:33:05;101391.16;;;7.88;100.00
49122;BME280;35529;44.342;25.944;2024-02-21T00:35:31;101387.66;;;7.87;100.00
49122;BME280;35529;44.342;25.944;2024-02-21T00:37:57;101391.31;;;7.86;100.00
49122;BME280;35529;44.342;25.944;2024-02-21T00:40:25;101383.66;;;7.83;100.00
49122;BME280;35529;44.342;25.944;2024-02-21T00:42:51;101381.50;;;7.79;100.00
49122;BME280;35529;44.342;25.944;2024-02-21T00:45:17;101386.78;;;7.79;100.00
49122;BME280;35529;44.342;25.944;2024-02-21T00:47:43;101383.00;;;7.81;100.00
49122;BME280;35529;44.342;25.944;2024-02-21T00:50:10;101381.72;;;7.85;100.00
49122;BME280;35529;44.342;25.944;2024-02-21T00:52:36;101378.91;;;7.87;100.00
49122;BME280;35529;44.342;25.944;2024-02-21T00:55:02;101381.72;;;7.85;100.00
49122;BME280;35529;44.342;25.944;2024-02-21T00:57:28;101369.47;;;7.84;100.00
49122;BME280;35529;44.342;25.944;2024-02-21T00:59:54;101380.56;;;7.88;100.00
49122;BME280;35529;44.342;25.944;2024-02-21T01:02:21;101379.72;;;7.87;100.00
49122;BME280;35529;44.342;25.944;2024-02-21T01:04:47;101381.03;;;7.83;100.00
49122;BME280;35529;44.342;25.944;2024-02-21T01:07:13;101375.03;;;7.73;100.00
49122;BME280;35529;44.342;25.944;2024-02-21T01:09:39;101382.53;;;7.60;100.00
49122;BME280;35529;44.342;25.944;2024-02-21T01:12:05;101377.91;;;7.62;100.00
49122;BME280;35529;44.342;25.944;2024-02-21T01:14:32;101373.81;;;7.67;100.00
49122;BME280;35529;44.342;25.944;2024-02-21T01:16:58;101370.53;;;7.65;100.00
49122;BME280;35529;44.342;25.944;2024-02-21T01:19:24;101370.88;;;7.70;100.00
49122;BME280;35529;44.342;25.944;2024-02-21T01:21:50;101365.81;;;7.77;100.00
49122;BME280;35529;44.342;25.944;2024-02-21T01:24:16;101368.66;;;7.84;100.00
49122;BME280;35529;44.342;25.944;2024-02-21T01:26:42;101363.66;;;7.81;100.00
49122;BME280;35529;44.342;25.944;2024-02-21T01:29:09;101369.63;;;7.83;100.00
49122;BME280;35529;44.342;25.944;2024-02-21T01:31:35;101366.50;;;7.87;100.00
49122;BME280;35529;44.342;25.944;2024-02-21T01:34:01;101369.69;;;7.91;100.00
49122;BME280;35529;44.342;25.944;2024-02-21T01:36:27;101363.09;;;7.95;100.00
49122;BME280;35529;44.342;25.944;2024-02-21T01:38:53;101361.13;;;7.97;100.00
49122;BME280;35529;44.342;25.944;2024-02-21T01:41:19;101356.66;;;7.98;100.00
49122;BME280;35529;44.342;25.944;2024-02-21T01:43:46;101360.97;;;7.99;100.00
49122;BME280;35529;44.342;25.944;2024-02-21T01:46:12;101350.38;;;7.99;100.00
49122;BME280;35529;44.342;25.944;2024-02-21T01:48:38;101347.91;;;7.97;100.00
49122;BME280;35529;44.342;25.944;2024-02-21T01:51:04;101346.84;;;7.90;100.00
49122;BME280;35529;44.342;25.944;2024-02-21T01:53:32;101344.69;;;7.85;100.00
49122;BME280;35529;44.342;25.944;2024-02-21T01:56:00;101349.47;;;7.82;100.00
49122;BME280;35529;44.342;25.944;2024-02-21T01:58:26;101347.13;;;7.79;100.00
49122;BME280;35529;44.342;25.944;2024-02-21T02:00:55;101340.72;;;7.81;100.00
49122;BME280;35529;44.342;25.944;2024-02-21T02:03:22;101348.94;;;7.78;100.00
49122;BME280;35529;44.342;25.944;2024-02-21T02:05:49;101337.88;;;7.75;100.00
49122;BME280;35529;44.342;25.944;2024-02-21T02:08:16;101339.16;;;7.70;100.00
49122;BME280;35529;44.342;25.944;2024-02-21T02:10:42;101335.19;;;7.66;100.00
49122;BME280;35529;44.342;25.944;2024-02-21T02:13:09;101340.47;;;7.66;100.00
49122;BME280;35529;44.342;25.944;2024-02-21T02:15:39;101340.91;;;7.62;100.00
49122;BME280;35529;44.342;25.944;2024-02-21T02:18:05;101333.63;;;7.55;100.00
49122;BME280;35529;44.342;25.944;2024-02-21T02:20:31;101343.66;;;7.52;100.00
49122;BME280;35529;44.342;25.944;2024-02-21T02:23:03;101352.88;;;7.48;100.00
49122;BME280;35529;44.342;25.944;2024-02-21T02:25:32;101347.44;;;7.49;100.00
49122;BME280;35529;44.342;25.944;2024-02-21T02:27:59;101350.91;;;7.50;100.00
49122;BME280;35529;44.342;25.944;2024-02-21T02:30:25;101348.78;;;7.53;100.00
49122;BME280;35529;44.342;25.944;2024-02-21T02:32:52;101354.59;;;7.57;100.00
49122;BME280;35529;44.342;25.944;2024-02-21T02:35:20;101356.13;;;7.60;100.00
49122;BME280;35529;44.342;25.944;2024-02-21T02:37:49;101357.91;;;7.59;100.00
49122;BME280;35529;44.342;25.944;2024-02-21T02:40:16;101354.28;;;7.60;100.00
49122;BME280;35529;44.342;25.944;2024-02-21T02:42:42;101355.59;;;7.56;100.00
49122;BME280;35529;44.342;25.944;2024-02-21T02:45:10;101346.31;;;7.52;100.00
49122;BME280;35529;44.342;25.944;2024-02-21T02:47:39;101359.53;;;7.52;100.00
49122;BME280;35529;44.342;25.944;2024-02-21T02:50:06;101372.56;;;7.53;100.00
49122;BME280;35529;44.342;25.944;2024-02-21T02:52:33;101376.03;;;7.54;100.00
49122;BME280;35529;44.342;25.944;2024-02-21T02:54:59;101367.41;;;7.44;100.00
49122;BME280;35529;44.342;25.944;2024-02-21T02:57:25;101354.72;;;7.29;100.00
49122;BME280;35529;44.342;25.944;2024-02-21T02:59:51;101363.88;;;7.17;100.00
49122;BME280;35529;44.342;25.944;2024-02-21T03:02:17;101362.53;;;7.13;100.00
49122;BME280;35529;44.342;25.944;2024-02-21T03:04:44;101348.19;;;7.15;100.00
49122;BME280;35529;44.342;25.944;2024-02-21T03:07:10;101353.53;;;7.24;100.00
49122;BME280;35529;44.342;25.944;2024-02-21T03:09:39;101360.38;;;7.34;100.00
49122;BME280;35529;44.342;25.944;2024-02-21T03:12:06;101350.69;;;7.43;100.00
49122;BME280;35529;44.342;25.944;2024-02-21T03:14:32;101357.84;;;7.51;100.00
49122;BME280;35529;44.342;25.944;2024-02-21T03:16:58;101355.25;;;7.59;100.00
49122;BME280;35529;44.342;25.944;2024-02-21T03:19:25;101344.09;;;7.65;100.00
49122;BME280;35529;44.342;25.944;2024-02-21T03:21:51;101355.69;;;7.72;100.00
49122;BME280;35529;44.342;25.944;2024-02-21T03:24:20;101352.06;;;7.74;100.00
49122;BME280;35529;44.342;25.944;2024-02-21T03:26:47;101351.91;;;7.75;100.00
49122;BME280;35529;44.342;25.944;2024-02-21T03:29:14;101350.91;;;7.76;100.00
49122;BME280;35529;44.342;25.944;2024-02-21T03:31:41;101341.84;;;7.79;100.00
49122;BME280;35529;44.342;25.944;2024-02-21T03:34:07;101348.81;;;7.80;100.00
49122;BME280;35529;44.342;25.944;2024-02-21T03:36:33;101342.31;;;7.74;100.00
49122;BME280;35529;44.342;25.944;2024-02-21T03:38:59;101342.47;;;7.72;100.00
49122;BME280;35529;44.342;25.944;2024-02-21T03:41:26;101348.22;;;7.68;100.00
49122;BME280;35529;44.342;25.944;2024-02-21T03:43:52;101346.38;;;7.60;100.00
49122;BME280;35529;44.342;25.944;2024-02-21T03:46:18;101346.84;;;7.55;100.00
49122;BME280;35529;44.342;25.944;2024-02-21T03:48:44;101352.53;;;7.43;100.00
49122;BME280;35529;44.342;25.944;2024-02-21T03:51:11;101350.25;;;7.30;100.00
49122;BME280;35529;44.342;25.944;2024-02-21T03:53:37;101341.69;;;7.28;100.00
49122;BME280;35529;44.342;25.944;2024-02-21T03:56:04;101349.13;;;7.32;100.00
49122;BME280;35529;44.342;25.944;2024-02-21T03:58:30;101352.84;;;7.40;100.00
49122;BME280;35529;44.342;25.944;2024-02-21T04:00:56;101346.63;;;7.49;100.00
49122;BME280;35529;44.342;25.944;2024-02-21T04:03:23;101342.81;;;7.51;100.00
49122;BME280;35529;44.342;25.944;2024-02-21T04:05:49;101340.72;;;7.55;100.00
49122;BME280;35529;44.342;25.944;2024-02-21T04:08:16;101334.44;;;7.56;100.00
49122;BME280;35529;44.342;25.944;2024-02-21T04:10:42;101330.28;;;7.53;100.00
49122;BME280;35529;44.342;25.944;2024-02-21T04:13:09;101344.03;;;7.57;100.00
49122;BME280;35529;44.342;25.944;2024-02-21T04:15:35;101340.72;;;7.55;100.00
49122;BME280;35529;44.342;25.944;2024-02-21T04:18:01;101333.25;;;7.50;100.00
49122;BME280;35529;44.342;25.944;2024-02-21T04:20:29;101335.91;;;7.50;100.00
49122;BME280;35529;44.342;25.944;2024-02-21T04:22:55;101345.78;;;7.48;100.00
49122;BME280;35529;44.342;25.944;2024-02-21T04:25:22;101334.06;;;7.51;100.00
49122;BME280;35529;44.342;25.944;2024-02-21T04:27:48;101335.41;;;7.55;100.00
49122;BME280;35529;44.342;25.944;2024-02-21T04:30:14;101328.19;;;7.57;100.00
49122;BME280;35529;44.342;25.944;2024-02-21T04:32:41;101337.75;;;7.58;100.00
49122;BME280;35529;44.342;25.944;2024-02-21T04:35:08;101330.78;;;7.49;100.00
49122;BME280;35529;44.342;25.944;2024-02-21T04:37:34;101342.41;;;7.38;100.00
49122;BME280;35529;44.342;25.944;2024-02-21T04:40:00;101336.78;;;7.33;100.00
49122;BME280;35529;44.342;25.944;2024-02-21T04:42:26;101346.81;;;7.29;100.00
49122;BME280;35529;44.342;25.944;2024-02-21T04:44:52;101352.41;;;7.26;100.00
49122;BME280;35529;44.342;25.944;2024-02-21T04:47:19;101359.25;;;7.19;100.00
49122;BME280;35529;44.342;25.944;2024-02-21T04:49:49;101360.16;;;7.28;100.00
49122;BME280;35529;44.342;25.944;2024-02-21T04:52:15;101355.09;;;7.34;100.00
49122;BME280;35529;44.342;25.944;2024-02-21T04:54:41;101356.13;;;7.42;100.00
49122;BME280;35529;44.342;25.944;2024-02-21T04:57:08;101351.59;;;7.52;100.00
49122;BME280;35529;44.342;25.944;2024-02-21T04:59:36;101354.13;;;7.62;100.00
49122;BME280;35529;44.342;25.944;2024-02-21T05:02:02;101364.38;;;7.65;100.00
49122;BME280;35529;44.342;25.944;2024-02-21T05:04:28;101353.03;;;7.72;100.00
49122;BME280;35529;44.342;25.944;2024-02-21T05:06:55;101360.00;;;7.74;100.00
49122;BME280;35529;44.342;25.944;2024-02-21T05:09:21;101361.66;;;7.75;100.00
49122;BME280;35529;44.342;25.944;2024-02-21T05:11:47;101362.97;;;7.70;100.00
49122;BME280;35529;44.342;25.944;2024-02-21T05:14:13;101367.88;;;7.65;100.00
49122;BME280;35529;44.342;25.944;2024-02-21T05:16:39;101374.75;;;7.58;100.00
49122;BME280;35529;44.342;25.944;2024-02-21T05:19:06;101378.56;;;7.55;100.00
49122;BME280;35529;44.342;25.944;2024-02-21T05:21:32;101378.69;;;7.54;100.00
49122;BME280;35529;44.342;25.944;2024-02-21T05:23:58;101387.47;;;7.54;100.00
49122;BME280;35529;44.342;25.944;2024-02-21T05:26:27;101381.47;;;7.52;100.00
49122;BME280;35529;44.342;25.944;2024-02-21T05:28:53;101396.84;;;7.49;100.00
49122;BME280;35529;44.342;25.944;2024-02-21T05:31:19;101394.31;;;7.47;100.00
49122;BME280;35529;44.342;25.944;2024-02-21T05:33:46;101387.53;;;7.45;100.00
49122;BME280;35529;44.342;25.944;2024-02-21T05:36:13;101386.56;;;7.46;100.00
49122;BME280;35529;44.342;25.944;2024-02-21T05:38:39;101397.50;;;7.51;100.00
49122;BME280;35529;44.342;25.944;2024-02-21T05:41:05;101400.84;;;7.53;100.00
49122;BME280;35529;44.342;25.944;2024-02-21T05:43:31;101403.38;;;7.63;100.00
49122;BME280;35529;44.342;25.944;2024-02-21T05:45:58;101404.41;;;7.70;100.00
49122;BME280;35529;44.342;25.944;2024-02-21T05:48:24;101413.69;;;7.74;100.00
49122;BME280;35529;44.342;25.944;2024-02-21T05:50:50;101410.91;;;7.76;100.00
49122;BME280;35529;44.342;25.944;2024-02-21T05:53:17;101404.31;;;7.80;100.00
49122;BME280;35529;44.342;25.944;2024-02-21T05:55:43;101412.75;;;7.83;100.00
49122;BME280;35529;44.342;25.944;2024-02-21T05:58:09;101407.53;;;7.92;100.00
49122;BME280;35529;44.342;25.944;2024-02-21T06:00:39;101410.22;;;8.00;100.00
49122;BME280;35529;44.342;25.944;2024-02-21T06:03:05;101403.47;;;8.05;100.00
49122;BME280;35529;44.342;25.944;2024-02-21T06:05:35;101420.38;;;8.13;100.00
49122;BME280;35529;44.342;25.944;2024-02-21T06:08:01;101412.63;;;8.19;100.00
49122;BME280;35529;44.342;25.944;2024-02-21T06:10:29;101414.34;;;8.29;100.00
49122;BME280;35529;44.342;25.944;2024-02-21T06:12:59;101412.22;;;8.32;100.00
49122;BME280;35529;44.342;25.944;2024-02-21T06:15:25;101416.81;;;8.30;100.00
49122;BME280;35529;44.342;25.944;2024-02-21T06:17:52;101413.69;;;8.27;100.00
49122;BME280;35529;44.342;25.944;2024-02-21T07:27:37;101452.59;;;9.61;100.00
49122;BME280;35529;44.342;25.944;2024-02-21T07:30:24;101454.75;;;9.74;100.00
49122;BME280;35529;44.342;25.944;2024-02-21T08:09:59;101453.38;;;10.76;100.00
49122;BME280;35529;44.342;25.944;2024-02-21T08:12:35;101451.66;;;10.83;100.00
49122;BME280;35529;44.342;25.944;2024-02-21T08:15:12;101453.78;;;10.87;100.00
49122;BME280;35529;44.342;25.944;2024-02-21T08:18:01;101451.56;;;10.99;100.00
49122;BME280;35529;44.342;25.944;2024-02-21T08:23:42;101442.41;;;11.25;100.00
49122;BME280;35529;44.342;25.944;2024-02-21T08:26:27;101444.84;;;11.35;100.00
49122;BME280;35529;44.342;25.944;2024-02-21T08:35:38;101453.75;;;11.65;100.00
49122;BME280;35529;44.342;25.944;2024-02-21T08:38:12;101445.16;;;11.78;100.00
49122;BME280;35529;44.342;25.944;2024-02-21T08:40:43;101455.31;;;11.74;100.00
49122;BME280;35529;44.342;25.944;2024-02-21T08:43:12;101454.69;;;11.72;100.00
49122;BME280;35529;44.342;25.944;2024-02-21T08:48:47;101445.06;;;11.86;100.00
49122;BME280;35529;44.342;25.944;2024-02-21T08:51:20;101462.16;;;11.92;100.00
49122;BME280;35529;44.342;25.944;2024-02-21T09:03:11;101462.31;;;11.90;100.00
49122;BME280;35529;44.342;25.944;2024-02-21T09:05:48;101451.88;;;11.89;100.00
49122;BME280;35529;44.342;25.944;2024-02-21T09:08:22;101456.94;;;11.99;100.00
49122;BME280;35529;44.342;25.944;2024-02-21T09:11:06;101468.63;;;11.98;100.00
49122;BME280;35529;44.342;25.944;2024-02-21T09:13:41;101465.84;;;11.91;100.00
49122;BME280;35529;44.342;25.944;2024-02-21T09:22:59;101472.72;;;11.62;100.00
49122;BME280;35529;44.342;25.944;2024-02-21T12:47:17;101294.38;;;12.30;100.00
49122;BME280;35529;44.342;25.944;2024-02-21T12:49:45;101288.00;;;12.46;100.00
49122;BME280;35529;44.342;25.944;2024-02-21T12:52:11;101295.84;;;12.54;100.00
49122;BME280;35529;44.342;25.944;2024-02-21T12:54:39;101291.25;;;12.63;100.00
49122;BME280;35529;44.342;25.944;2024-02-21T12:57:05;101292.69;;;12.66;100.00
49122;BME280;35529;44.342;25.944;2024-02-21T12:59:31;101290.06;;;12.72;100.00
49122;BME280;35529;44.342;25.944;2024-02-21T13:01:57;101284.25;;;12.84;100.00
49122;BME280;35529;44.342;25.944;2024-02-21T13:04:23;101282.19;;;12.86;100.00
49122;BME280;35529;44.342;25.944;2024-02-21T13:06:50;101280.19;;;12.88;100.00
49122;BME280;35529;44.342;25.944;2024-02-21T13:09:16;101275.72;;;12.95;100.00
49122;BME280;35529;44.342;25.944;2024-02-21T13:11:42;101284.63;;;13.02;100.00
49122;BME280;35529;44.342;25.944;2024-02-21T13:14:10;101275.22;;;13.06;100.00
49122;BME280;35529;44.342;25.944;2024-02-21T13:16:36;101277.88;;;13.06;100.00
49122;BME280;35529;44.342;25.944;2024-02-21T13:19:06;101278.44;;;13.02;100.00
49122;BME280;35529;44.342;25.944;2024-02-21T13:21:32;101273.34;;;13.07;100.00
49122;BME280;35529;44.342;25.944;2024-02-21T13:23:58;101271.69;;;13.06;100.00
49122;BME280;35529;44.342;25.944;2024-02-21T13:26:24;101270.38;;;12.95;100.00
49122;BME280;35529;44.342;25.944;2024-02-21T13:28:50;101265.97;;;13.02;100.00
49122;BME280;35529;44.342;25.944;2024-02-21T13:31:16;101270.84;;;12.99;100.00
49122;BME280;35529;44.342;25.944;2024-02-21T13:33:43;101263.03;;;12.97;100.00
49122;BME280;35529;44.342;25.944;2024-02-21T13:36:12;101273.41;;;12.85;100.00
49122;BME280;35529;44.342;25.944;2024-02-21T13:38:38;101260.25;;;12.84;100.00
49122;BME280;35529;44.342;25.944;2024-02-21T13:41:07;101266.88;;;12.66;100.00
49122;BME280;35529;44.342;25.944;2024-02-21T13:43:33;101270.69;;;12.57;100.00
49122;BME280;35529;44.342;25.944;2024-02-21T13:46:00;101265.09;;;12.52;100.00
49122;BME280;35529;44.342;25.944;2024-02-21T13:48:28;101268.06;;;12.42;100.00
49122;BME280;35529;44.342;25.944;2024-02-21T13:50:55;101271.69;;;12.34;100.00
49122;BME280;35529;44.342;25.944;2024-02-21T13:53:22;101265.59;;;12.40;100.00
49122;BME280;35529;44.342;25.944;2024-02-21T13:55:49;101265.75;;;12.54;100.00
49122;BME280;35529;44.342;25.944;2024-02-21T13:58:16;101263.00;;;12.69;100.00
49122;BME280;35529;44.342;25.944;2024-02-21T14:00:43;101264.00;;;12.89;100.00
49122;BME280;35529;44.342;25.944;2024-02-21T14:03:09;101263.59;;;12.93;100.00
49122;BME280;35529;44.342;25.944;2024-02-21T14:54:37;101218.03;;;11.49;100.00
49122;BME280;35529;44.342;25.944;2024-02-21T14:57:11;101216.72;;;11.45;100.00
49122;BME280;35529;44.342;25.944;2024-02-21T14:59:41;101230.59;;;11.40;100.00
49122;BME280;35529;44.342;25.944;2024-02-21T15:02:08;101214.91;;;11.31;100.00
49122;BME280;35529;44.342;25.944;2024-02-21T15:04:35;101213.34;;;11.21;100.00
49122;BME280;35529;44.342;25.944;2024-02-21T15:07:01;101215.72;;;11.16;100.00
49122;BME280;35529;44.342;25.944;2024-02-21T15:12:18;101219.84;;;11.04;100.00
49122;BME280;35529;44.342;25.944;2024-02-21T15:14:51;101211.09;;;10.95;100.00
49122;BME280;35529;44.342;25.944;2024-02-21T15:17:27;101216.69;;;10.85;100.00
49122;BME280;35529;44.342;25.944;2024-02-21T15:20:06;101213.63;;;10.73;100.00
49122;BME280;35529;44.342;25.944;2024-02-21T15:22:53;101214.69;;;10.64;100.00
49122;BME280;35529;44.342;25.944;2024-02-21T15:25:34;101218.41;;;10.55;100.00
49122;BME280;35529;44.342;25.944;2024-02-21T15:28:09;101211.16;;;10.49;100.00
49122;BME280;35529;44.342;25.944;2024-02-21T15:30:39;101210.22;;;10.42;100.00
49122;BME280;35529;44.342;25.944;2024-02-21T15:33:10;101205.28;;;10.38;100.00
49122;BME280;35529;44.342;25.944;2024-02-21T15:36:01;101206.94;;;10.31;100.00
49122;BME280;35529;44.342;25.944;2024-02-21T15:41:30;101215.84;;;10.15;100.00
49122;BME280;35529;44.342;25.944;2024-02-21T15:44:22;101217.06;;;10.04;100.00
49122;BME280;35529;44.342;25.944;2024-02-21T15:50:01;101217.81;;;9.90;100.00
49122;BME280;35529;44.342;25.944;2024-02-21T15:52:38;101216.84;;;9.83;100.00
49122;BME280;35529;44.342;25.944;2024-02-21T16:01:04;101228.69;;;9.64;100.00
49122;BME280;35529;44.342;25.944;2024-02-21T16:03:46;101221.94;;;9.53;100.00
49122;BME280;35529;44.342;25.944;2024-02-21T16:09:31;101227.13;;;9.38;100.00
49122;BME280;35529;44.342;25.944;2024-02-21T16:12:00;101233.44;;;9.29;100.00
49122;BME280;35529;44.342;25.944;2024-02-21T16:14:31;101228.63;;;9.24;100.00
49122;BME280;35529;44.342;25.944;2024-02-21T16:17:21;101233.47;;;9.20;100.00
49122;BME280;35529;44.342;25.944;2024-02-21T16:22:46;101230.50;;;9.15;100.00
49122;BME280;35529;44.342;25.944;2024-02-21T16:25:32;101230.97;;;9.11;100.00
49122;BME280;35529;44.342;25.944;2024-02-21T16:31:33;101226.03;;;8.99;100.00
49122;BME280;35529;44.342;25.944;2024-02-21T16:34:05;101225.06;;;8.92;100.00
49122;BME280;35529;44.342;25.944;2024-02-21T16:36:36;101227.38;;;8.87;100.00
49122;BME280;35529;44.342;25.944;2024-02-21T16:39:07;101235.00;;;8.82;100.00
49122;BME280;35529;44.342;25.944;2024-02-21T16:42:09;101244.56;;;8.75;100.00
49122;BME280;35529;44.342;25.944;2024-02-21T16:44:40;101242.28;;;8.71;100.00
49122;BME280;35529;44.342;25.944;2024-02-21T16:47:18;101241.63;;;8.69;100.00
49122;BME280;35529;44.342;25.944;2024-02-21T16:49:54;101243.75;;;8.66;100.00
49122;BME280;35529;44.342;25.944;2024-02-21T16:52:21;101246.59;;;8.64;100.00
49122;BME280;35529;44.342;25.944;2024-02-21T16:57:58;101240.44;;;8.55;100.00
49122;BME280;35529;44.342;25.944;2024-02-21T17:03:47;101236.13;;;8.54;100.00
49122;BME280;35529;44.342;25.944;2024-02-21T17:06:17;101236.97;;;8.55;100.00
49122;BME280;35529;44.342;25.944;2024-02-21T17:09:02;101232.84;;;8.52;100.00
49122;BME280;35529;44.342;25.944;2024-02-21T17:11:31;101238.59;;;8.48;100.00
49122;BME280;35529;44.342;25.944;2024-02-21T17:16:57;101247.84;;;8.44;100.00
49122;BME280;35529;44.342;25.944;2024-02-21T17:19:35;101242.88;;;8.41;100.00
49122;BME280;35529;44.342;25.944;2024-02-21T17:22:06;101250.16;;;8.38;100.00
49122;BME280;35529;44.342;25.944;2024-02-21T17:24:43;101247.81;;;8.35;100.00
49122;BME280;35529;44.342;25.944;2024-02-21T17:27:09;101250.13;;;8.30;100.00
49122;BME280;35529;44.342;25.944;2024-02-21T17:29:36;101252.47;;;8.25;100.00
49122;BME280;35529;44.342;25.944;2024-02-21T17:32:17;101251.44;;;8.18;100.00
49122;BME280;35529;44.342;25.944;2024-02-21T17:49:05;101260.72;;;7.79;100.00
49122;BME280;35529;44.342;25.944;2024-02-21T17:57:49;101274.03;;;7.61;100.00
49122;BME280;35529;44.342;25.944;2024-02-21T18:00:16;101272.00;;;7.55;100.00
49122;BME280;35529;44.342;25.944;2024-02-21T18:02:42;101271.34;;;7.53;100.00
49122;BME280;35529;44.342;25.944;2024-02-21T18:05:08;101270.13;;;7.47;100.00
49122;BME280;35529;44.342;25.944;2024-02-21T18:07:34;101270.59;;;7.43;100.00
49122;BME280;35529;44.342;25.944;2024-02-21T18:10:02;101272.28;;;7.44;100.00
49122;BME280;35529;44.342;25.944;2024-02-21T18:12:29;101276.88;;;7.42;100.00
49122;BME280;35529;44.342;25.944;2024-02-21T18:14:55;101276.06;;;7.41;100.00
49122;BME280;35529;44.342;25.944;2024-02-21T18:17:21;101272.72;;;7.39;100.00
49122;BME280;35529;44.342;25.944;2024-02-21T18:19:48;101269.25;;;7.38;100.00
49122;BME280;35529;44.342;25.944;2024-02-21T18:22:14;101280.66;;;7.39;100.00
49122;BME280;35529;44.342;25.944;2024-02-21T18:24:42;101283.44;;;7.37;100.00
49122;BME280;35529;44.342;25.944;2024-02-21T18:27:08;101286.09;;;7.37;100.00
49122;BME280;35529;44.342;25.944;2024-02-21T18:29:34;101291.59;;;7.44;100.00
49122;BME280;35529;44.342;25.944;2024-02-21T18:32:03;101285.84;;;7.49;100.00
49122;BME280;35529;44.342;25.944;2024-02-21T18:34:29;101279.56;;;7.50;100.00
49122;BME280;35529;44.342;25.944;2024-02-21T18:36:55;101286.34;;;7.52;100.00
49122;BME280;35529;44.342;25.944;2024-02-21T18:39:21;101283.22;;;7.49;100.00
49122;BME280;35529;44.342;25.944;2024-02-21T18:41:48;101282.53;;;7.47;100.00
49122;BME280;35529;44.342;25.944;2024-02-21T18:44:15;101284.78;;;7.42;100.00
49122;BME280;35529;44.342;25.944;2024-02-21T18:46:41;101274.56;;;7.38;100.00
49122;BME280;35529;44.342;25.944;2024-02-21T18:49:07;101282.78;;;7.35;100.00
49122;BME280;35529;44.342;25.944;2024-02-21T18:51:33;101276.47;;;7.28;100.00
49122;BME280;35529;44.342;25.944;2024-02-21T18:53:59;101273.44;;;7.23;100.00
49122;BME280;35529;44.342;25.944;2024-02-21T18:56:28;101275.88;;;7.16;100.00
49122;BME280;35529;44.342;25.944;2024-02-21T18:58:56;101272.19;;;7.09;100.00
49122;BME280;35529;44.342;25.944;2024-02-21T19:15:51;101284.38;;;6.84;100.00
49122;BME280;35529;44.342;25.944;2024-02-21T19:18:17;101282.03;;;6.81;100.00
49122;BME280;35529;44.342;25.944;2024-02-21T19:20:45;101283.19;;;6.78;100.00
49122;BME280;35529;44.342;25.944;2024-02-21T19:23:12;101280.00;;;6.75;100.00
49122;BME280;35529;44.342;25.944;2024-02-21T19:25:38;101281.13;;;6.72;100.00
49122;BME280;35529;44.342;25.944;2024-02-21T19:28:10;101282.41;;;6.68;100.00
49122;BME280;35529;44.342;25.944;2024-02-21T19:30:40;101280.63;;;6.68;100.00
49122;BME280;35529;44.342;25.944;2024-02-21T19:33:06;101280.91;;;6.65;100.00
49122;BME280;35529;44.342;25.944;2024-02-21T19:35:38;101276.75;;;6.63;100.00
49122;BME280;35529;44.342;25.944;2024-02-21T19:38:05;101282.50;;;6.58;100.00
49122;BME280;35529;44.342;25.944;2024-02-21T19:40:35;101280.00;;;6.57;100.00
49122;BME280;35529;44.342;25.944;2024-02-21T19:43:01;101284.75;;;6.53;100.00
49122;BME280;35529;44.342;25.944;2024-02-21T19:45:27;101290.34;;;6.50;100.00
49122;BME280;35529;44.342;25.944;2024-02-21T19:47:54;101289.63;;;6.48;100.00
49122;BME280;35529;44.342;25.944;2024-02-21T19:50:27;101279.56;;;6.43;100.00
49122;BME280;35529;44.342;25.944;2024-02-21T19:52:58;101279.31;;;6.36;100.00
49122;BME280;35529;44.342;25.944;2024-02-21T19:55:25;101284.88;;;6.33;100.00
49122;BME280;35529;44.342;25.944;2024-02-21T19:57:53;101279.25;;;6.28;100.00
49122;BME280;35529;44.342;25.944;2024-02-21T20:00:20;101276.72;;;6.27;100.00
49122;BME280;35529;44.342;25.944;2024-02-21T20:02:46;101275.22;;;6.24;100.00
49122;BME280;35529;44.342;25.944;2024-02-21T20:05:14;101277.19;;;6.22;100.00
49122;BME280;35529;44.342;25.944;2024-02-21T20:07:40;101278.44;;;6.18;100.00
49122;BME280;35529;44.342;25.944;2024-02-21T20:10:07;101286.13;;;6.11;100.00
49122;BME280;35529;44.342;25.944;2024-02-21T20:12:33;101273.38;;;6.07;100.00
49122;BME280;35529;44.342;25.944;2024-02-21T20:14:59;101280.91;;;6.01;100.00
49122;BME280;35529;44.342;25.944;2024-02-21T20:17:31;101270.63;;;5.98;100.00